Time;durP1;ratioP1;P1;durP2;ratioP2;P2;SDS_P1;SDS_P2;PMS_P1;PMS_P2;Temp;Humidity;BMP_temperature;BMP_pressure;BME280_temperature;BME280_humidity;BME280_pressure;Samples;Min_cycle;Max_cycle;Signal;HPM_P1;HPM_P2
2023/12/27 00:01:17;;;;;;;28.70;13.75;;;;;;;4.17;100.00;102023.78;5048159;28;20071;-78
2023/12/27 00:03:42;;;;;;;28.58;13.35;;;;;;;4.22;100.00;102031.44;5051623;28;20024;-76
2023/12/27 00:06:08;;;;;;;26.42;12.90;;;;;;;4.21;100.00;102020.19;5052100;28;20485;-77
2023/12/27 00:08:35;;;;;;;33.10;13.88;;;;;;;4.21;100.00;102020.19;5043529;28;20031;-78
2023/12/27 00:11:00;;;;;;;25.30;13.13;;;;;;;4.21;100.00;102017.56;5042859;28;20025;-77
2023/12/27 00:13:26;;;;;;;30.33;13.80;;;;;;;4.16;100.00;102019.47;5034391;28;20535;-77
2023/12/27 00:15:51;;;;;;;34.78;13.75;;;;;;;4.15;100.00;102015.16;5031005;28;20112;-77
2023/12/27 00:18:17;;;;;;;36.45;14.63;;;;;;;4.20;100.00;102015.88;5044115;28;20322;-77
2023/12/27 00:20:44;;;;;;;31.25;14.40;;;;;;;4.16;100.00;102009.03;5050561;28;20027;-78
2023/12/27 00:23:09;;;;;;;29.48;14.80;;;;;;;4.17;100.00;102010.75;5051148;28;20051;-78
2023/12/27 00:25:35;;;;;;;28.77;13.77;;;;;;;4.20;100.00;102022.81;5035092;28;20029;-79
2023/12/27 00:28:00;;;;;;;29.63;13.88;;;;;;;4.17;100.00;102021.16;5040747;28;20108;-79
2023/12/27 00:30:25;;;;;;;31.77;13.85;;;;;;;4.17;100.00;102017.72;5036001;28;20020;-79
2023/12/27 00:32:51;;;;;;;33.67;14.13;;;;;;;4.14;100.00;102018.66;5036637;28;20059;-79
2023/12/27 00:35:16;;;;;;;25.73;12.98;;;;;;;4.17;100.00;102007.28;5049984;28;20040;-79
2023/12/27 00:37:41;;;;;;;28.58;13.38;;;;;;;4.19;100.00;102011.56;5049922;28;20159;-79
2023/12/27 00:40:07;;;;;;;32.05;13.18;;;;;;;4.15;100.00;102009.94;5046449;28;20063;-79
2023/12/27 00:42:33;;;;;;;31.25;14.13;;;;;;;4.17;100.00;102012.50;5050414;28;20033;-78
2023/12/27 00:44:58;;;;;;;29.95;13.00;;;;;;;4.16;100.00;102011.66;5046449;28;20563;-78
2023/12/27 00:47:23;;;;;;;31.33;13.32;;;;;;;4.16;100.00;102016.84;5039063;28;20025;-79
2023/12/27 00:49:49;;;;;;;32.13;13.60;;;;;;;4.16;100.00;102003.84;5043216;28;20083;-79
2023/12/27 00:52:14;;;;;;;30.08;13.00;;;;;;;4.18;100.00;102017.66;5049138;28;20060;-79
2023/12/27 00:54:39;;;;;;;28.60;12.43;;;;;;;4.12;100.00;102012.63;5042434;28;20033;-79
2023/12/27 00:57:05;;;;;;;28.02;12.82;;;;;;;4.12;100.00;102015.22;5038910;28;20029;-79
2023/12/27 00:59:30;;;;;;;29.98;13.27;;;;;;;4.10;100.00;102019.63;5048008;28;20017;-79
2023/12/27 01:01:55;;;;;;;28.95;12.55;;;;;;;4.08;100.00;102008.41;5049168;28;20492;-78
2023/12/27 01:04:21;;;;;;;31.45;13.50;;;;;;;4.05;100.00;102000.69;5041106;28;20028;-79
2023/12/27 01:06:46;;;;;;;28.35;12.57;;;;;;;4.01;100.00;102006.88;5032511;28;20147;-78
2023/12/27 01:09:11;;;;;;;33.15;12.98;;;;;;;4.02;100.00;102003.38;5042509;28;20057;-79
2023/12/27 01:11:37;;;;;;;27.13;12.85;;;;;;;3.97;100.00;101995.66;5030201;28;20053;-79
2023/12/27 01:14:02;;;;;;;29.80;13.27;;;;;;;3.97;100.00;101994.81;5027994;28;20049;-79
2023/12/27 01:16:28;;;;;;;29.58;12.38;;;;;;;3.95;100.00;101992.25;5029902;28;20106;-79
2023/12/27 01:18:53;;;;;;;32.25;12.40;;;;;;;3.94;100.00;101984.50;5029708;28;20025;-79
2023/12/27 01:21:18;;;;;;;29.65;12.57;;;;;;;3.94;100.00;101979.28;5028170;28;20148;-79
2023/12/27 01:23:44;;;;;;;30.08;12.63;;;;;;;3.90;100.00;101977.66;5030520;28;20478;-79
2023/12/27 01:26:10;;;;;;;33.80;12.82;;;;;;;3.86;100.00;101982.09;5044128;28;20104;-79
2023/12/27 01:28:35;;;;;;;28.10;12.35;;;;;;;3.89;100.00;101983.78;5048465;28;20028;-79
2023/12/27 01:31:01;;;;;;;24.15;12.68;;;;;;;3.88;100.00;101974.25;5043760;28;20029;-79
2023/12/27 01:33:27;;;;;;;27.02;13.10;;;;;;;3.87;100.00;101978.59;5028740;28;20049;-79
2023/12/27 01:35:52;;;;;;;34.72;13.82;;;;;;;3.89;100.00;101986.38;5041181;28;20424;-79
2023/12/27 01:38:18;;;;;;;28.88;12.85;;;;;;;3.88;100.00;101979.47;5048387;28;20124;-79
2023/12/27 01:40:48;;;;;;;31.63;12.68;;;;;;;3.87;100.00;101982.97;5042955;28;20048;-79
2023/12/27 01:43:13;;;;;;;28.38;12.95;;;;;;;3.88;100.00;101982.06;5036747;28;20409;-79
2023/12/27 01:45:38;;;;;;;25.88;12.82;;;;;;;3.87;100.00;101985.56;5029458;28;20112;-79
2023/12/27 01:48:04;;;;;;;28.38;12.52;;;;;;;3.90;100.00;101995.88;5028448;28;20099;-79
2023/12/27 01:50:30;;;;;;;33.05;12.88;;;;;;;3.88;100.00;101993.31;5038361;28;20037;-79
2023/12/27 01:52:55;;;;;;;30.60;12.85;;;;;;;3.87;100.00;102002.03;5049360;28;20043;-79
2023/12/27 01:55:20;;;;;;;30.77;13.57;;;;;;;3.89;100.00;101999.38;5045858;28;20025;-79
2023/12/27 01:57:46;;;;;;;29.38;13.35;;;;;;;3.92;100.00;102001.91;5043979;28;20029;-79
2023/12/27 02:00:12;;;;;;;26.85;12.38;;;;;;;3.93;100.00;102003.63;5038148;28;20488;-79
2023/12/27 02:02:38;;;;;;;24.70;12.13;;;;;;;3.94;100.00;101984.50;5032408;28;20481;-78
2023/12/27 02:05:05;;;;;;;31.75;13.05;;;;;;;3.92;100.00;101981.06;5047525;28;20028;-78
2023/12/27 02:07:30;;;;;;;33.65;13.10;;;;;;;3.98;100.00;101986.09;5045685;28;20036;-78
2023/12/27 02:09:56;;;;;;;30.90;13.63;;;;;;;3.97;100.00;101985.25;5048687;28;20024;-78
2023/12/27 02:12:26;;;;;;;29.83;12.13;;;;;;;3.94;100.00;101969.72;5048469;28;20124;-78
2023/12/27 02:14:52;;;;;;;29.02;11.95;;;;;;;3.95;100.00;101979.25;5048962;28;20033;-78
2023/12/27 02:17:18;;;;;;;23.92;11.45;;;;;;;3.95;100.00;101986.19;5040528;28;20040;-79
2023/12/27 02:19:44;;;;;;;24.98;10.40;;;;;;;3.96;100.00;101980.09;5045468;28;20036;-79
2023/12/27 02:22:14;;;;;;;26.73;11.57;;;;;;;3.97;100.00;101979.19;5048422;28;20033;-79
2023/12/27 02:24:40;;;;;;;28.23;12.00;;;;;;;3.98;100.00;101975.69;5046336;28;20067;-78
2023/12/27 02:27:06;;;;;;;27.10;11.63;;;;;;;3.97;100.00;101968.78;5039268;28;20052;-78
2023/12/27 02:29:31;;;;;;;24.35;11.25;;;;;;;3.98;100.00;101962.66;5029014;28;20045;-78
2023/12/27 02:31:59;;;;;;;31.52;10.80;;;;;;;3.98;100.00;101965.28;5040400;28;20031;-79
2023/12/27 02:34:24;;;;;;;26.73;10.65;;;;;;;3.96;100.00;101960.13;5049326;28;20052;-78
2023/12/27 02:36:51;;;;;;;24.50;10.63;;;;;;;3.98;100.00;101960.06;5039876;28;20111;-79
2023/12/27 02:39:17;;;;;;;26.88;10.18;;;;;;;3.96;100.00;101954.91;5042602;28;20060;-79
2023/12/27 02:41:42;;;;;;;24.20;10.25;;;;;;;3.98;100.00;101960.06;5049347;28;20037;-79
2023/12/27 02:44:08;;;;;;;21.52;10.07;;;;;;;3.99;100.00;101953.97;5038152;28;20028;-79
2023/12/27 02:46:33;;;;;;;23.23;9.85;;;;;;;3.97;100.00;101947.94;5028434;28;20393;-79
2023/12/27 02:48:59;;;;;;;24.52;9.90;;;;;;;3.97;100.00;101940.13;5028096;28;20037;-79
2023/12/27 02:51:24;;;;;;;28.23;10.27;;;;;;;3.97;100.00;101941.00;5027575;28;20061;-79
2023/12/27 02:53:50;;;;;;;21.08;9.35;;;;;;;3.99;100.00;101935.75;5026886;28;20025;-79
2023/12/27 02:56:18;;;;;;;22.88;9.85;;;;;;;3.98;100.00;101927.06;5038532;28;20030;-79
2023/12/27 02:58:43;;;;;;;29.15;10.45;;;;;;;3.99;100.00;101930.53;5055033;28;20110;-79
2023/12/27 03:01:09;;;;;;;22.02;9.90;;;;;;;4.00;100.00;101921.81;5048072;28;20064;-77
2023/12/27 03:03:34;;;;;;;24.45;10.38;;;;;;;4.00;100.00;101924.44;5045749;28;20409;-78
2023/12/27 03:05:59;;;;;;;23.83;10.57;;;;;;;4.00;100.00;101914.00;5046737;28;20025;-79
2023/12/27 03:08:25;;;;;;;26.35;10.52;;;;;;;4.00;100.00;101906.19;5047886;28;20477;-78
2023/12/27 03:10:50;;;;;;;23.30;10.93;;;;;;;3.99;100.00;101907.09;5046471;28;20029;-79
2023/12/27 03:13:16;;;;;;;24.08;10.38;;;;;;;3.98;100.00;101910.59;5041897;28;20037;-78
2023/12/27 03:15:41;;;;;;;30.90;11.40;;;;;;;4.02;100.00;101914.84;5030576;28;20028;-79
2023/12/27 03:18:06;;;;;;;32.70;11.75;;;;;;;4.03;100.00;101900.94;5028129;28;20030;-78
2023/12/27 03:20:32;;;;;;;23.65;10.70;;;;;;;4.02;100.00;101889.66;5027107;28;20024;-78
2023/12/27 03:23:00;;;;;;;27.20;11.52;;;;;;;4.04;100.00;101889.63;5028175;28;20029;-78
2023/12/27 03:25:25;;;;;;;22.65;9.93;;;;;;;4.03;100.00;101877.50;5026692;28;20025;-78
2023/12/27 03:27:51;;;;;;;24.00;10.02;;;;;;;4.06;100.00;101877.41;5026785;28;20029;-78
2023/12/27 03:30:16;;;;;;;23.85;10.70;;;;;;;4.05;100.00;101883.50;5033524;28;20029;-78
2023/12/27 03:32:41;;;;;;;19.52;10.13;;;;;;;4.06;100.00;101890.41;5039407;28;20036;-79
2023/12/27 03:35:07;;;;;;;30.17;10.77;;;;;;;4.06;100.00;101883.47;5038341;28;20046;-79
2023/12/27 03:37:32;;;;;;;22.52;10.40;;;;;;;4.06;100.00;101882.59;5027259;28;20040;-78
2023/12/27 03:39:58;;;;;;;26.20;10.45;;;;;;;4.08;100.00;101870.38;5043327;28;20028;-78
2023/12/27 03:42:23;;;;;;;27.13;10.55;;;;;;;4.08;100.00;101871.25;5046912;28;20040;-78
2023/12/27 03:44:52;;;;;;;24.95;10.45;;;;;;;4.05;100.00;101853.13;5047344;28;20036;-78
2023/12/27 03:47:18;;;;;;;25.83;10.30;;;;;;;4.04;100.00;101851.41;5047145;28;20198;-79
2023/12/27 03:49:44;;;;;;;25.13;10.45;;;;;;;4.04;100.00;101845.34;5042070;28;20021;-77
2023/12/27 03:52:09;;;;;;;24.20;9.95;;;;;;;4.04;100.00;101840.13;5033617;28;20038;-78
2023/12/27 03:54:34;;;;;;;27.02;10.57;;;;;;;4.03;100.00;101838.44;5040618;28;20304;-78
2023/12/27 03:57:00;;;;;;;23.80;11.07;;;;;;;4.04;100.00;101829.72;5034700;28;20029;-77
2023/12/27 03:59:25;;;;;;;22.70;10.52;;;;;;;4.05;100.00;101831.44;5026607;28;20585;-77
2023/12/27 04:01:50;;;;;;;27.23;11.30;;;;;;;4.05;100.00;101823.63;5031419;28;20388;-77
2023/12/27 04:04:17;;;;;;;24.08;11.20;;;;;;;4.05;100.00;101821.00;5041271;28;20489;-78
2023/12/27 04:06:42;;;;;;;25.25;11.57;;;;;;;4.06;100.00;101817.50;5049923;28;20083;-78
2023/12/27 04:09:07;;;;;;;25.10;11.23;;;;;;;4.08;100.00;101818.31;5048724;28;20431;-78
2023/12/27 04:11:33;;;;;;;29.20;11.88;;;;;;;4.08;100.00;101810.50;5050866;28;20120;-78
2023/12/27 04:13:58;;;;;;;28.38;11.93;;;;;;;4.12;100.00;101813.84;5050781;28;20477;-78
2023/12/27 04:16:23;;;;;;;24.80;11.15;;;;;;;4.12;100.00;101811.25;5048952;28;20492;-78
2023/12/27 04:18:49;;;;;;;25.00;11.57;;;;;;;4.15;100.00;101812.00;5039204;28;20049;-78
2023/12/27 04:21:14;;;;;;;25.67;11.30;;;;;;;4.18;100.00;101804.09;5029107;28;20025;-78
2023/12/27 04:23:40;;;;;;;29.63;11.35;;;;;;;4.20;100.00;101801.44;5029017;28;20026;-78
2023/12/27 04:26:05;;;;;;;22.80;10.80;;;;;;;4.23;100.00;101801.34;5029312;28;20020;-78
2023/12/27 04:28:31;;;;;;;24.77;11.15;;;;;;;4.25;100.00;101802.97;5033762;28;20009;-78
2023/12/27 04:30:56;;;;;;;26.10;10.48;;;;;;;4.28;100.00;101804.63;5049998;28;20025;-78
2023/12/27 04:33:22;;;;;;;26.65;11.70;;;;;;;4.31;100.00;101808.00;5049790;28;20106;-78
2023/12/27 04:35:47;;;;;;;30.10;11.68;;;;;;;4.32;100.00;101799.28;5040705;28;20025;-78
2023/12/27 04:38:13;;;;;;;25.95;11.50;;;;;;;4.35;100.00;101799.16;5044636;28;20082;-79
2023/12/27 04:40:43;;;;;;;24.73;11.32;;;;;;;4.37;100.00;101802.56;5049798;28;20025;-79
2023/12/27 04:43:08;;;;;;;27.52;11.35;;;;;;;4.40;100.00;101806.84;5048985;28;20033;-79
2023/12/27 04:45:34;;;;;;;29.30;11.85;;;;;;;4.43;100.00;101801.56;5048910;28;20021;-79
2023/12/27 04:47:59;;;;;;;24.77;10.90;;;;;;;4.47;100.00;101794.47;5051125;28;20033;-79
2023/12/27 04:50:24;;;;;;;25.58;10.88;;;;;;;4.50;100.00;101796.97;5050502;28;20075;-79
2023/12/27 04:52:50;;;;;;;31.75;11.00;;;;;;;4.53;100.00;101791.66;5050113;28;20074;-80
2023/12/27 04:55:15;;;;;;;24.40;10.75;;;;;;;4.55;100.00;101792.47;5046454;28;20113;-79
2023/12/27 04:57:41;;;;;;;25.70;10.38;;;;;;;4.58;100.00;101779.31;5040533;28;20036;-79
2023/12/27 05:00:07;;;;;;;24.42;10.43;;;;;;;4.62;100.00;101783.53;5029833;28;20033;-78
2023/12/27 05:02:32;;;;;;;23.20;10.35;;;;;;;4.63;100.00;101772.19;5031235;28;20033;-79
2023/12/27 05:04:58;;;;;;;26.48;10.95;;;;;;;4.65;100.00;101773.00;5030711;28;20026;-79
2023/12/27 05:07:23;;;;;;;27.15;11.65;;;;;;;4.66;100.00;101761.66;5031668;28;20481;-79
2023/12/27 05:09:48;;;;;;;25.33;10.73;;;;;;;4.69;100.00;101761.56;5042998;28;20017;-78
2023/12/27 05:12:14;;;;;;;28.63;11.10;;;;;;;4.69;100.00;101751.97;5040387;28;20037;-78
2023/12/27 05:14:39;;;;;;;22.67;10.85;;;;;;;4.72;100.00;101748.41;5049155;28;20027;-78
2023/12/27 05:17:04;;;;;;;29.73;11.10;;;;;;;4.73;100.00;101747.50;5036237;28;20033;-78
2023/12/27 05:19:30;;;;;;;26.55;10.93;;;;;;;4.76;100.00;101755.22;5040469;28;20025;-78
2023/12/27 05:21:55;;;;;;;25.90;11.60;;;;;;;4.77;100.00;101751.72;5032821;28;20127;-78
2023/12/27 05:24:20;;;;;;;26.33;11.30;;;;;;;4.79;100.00;101747.28;5045224;28;20536;-78
2023/12/27 05:26:46;;;;;;;26.45;11.68;;;;;;;4.81;100.00;101747.25;5049150;28;20358;-78
2023/12/27 05:29:11;;;;;;;31.00;11.25;;;;;;;4.81;100.00;101740.28;5048070;28;20112;-78
2023/12/27 05:31:36;;;;;;;24.48;11.73;;;;;;;4.83;100.00;101738.47;5049416;28;20045;-79
2023/12/27 05:34:02;;;;;;;25.58;12.50;;;;;;;4.84;100.00;101727.16;5045725;28;20040;-78
2023/12/27 05:36:27;;;;;;;30.15;12.43;;;;;;;4.86;100.00;101721.88;5046858;28;20497;-77
2023/12/27 05:38:53;;;;;;;29.42;12.77;;;;;;;4.84;100.00;101724.53;5041629;28;20022;-77
2023/12/27 05:41:24;;;;;;;25.65;12.35;;;;;;;4.85;100.00;101721.03;5044344;28;20036;-77
2023/12/27 05:43:50;;;;;;;30.10;13.63;;;;;;;4.85;100.00;101721.03;5048208;28;20071;-77
2023/12/27 05:46:18;;;;;;;27.27;12.48;;;;;;;4.87;100.00;101719.22;5048904;28;20029;-77
2023/12/27 05:48:43;;;;;;;27.30;13.02;;;;;;;4.89;100.00;101721.75;5048469;28;20037;-77
2023/12/27 05:51:09;;;;;;;28.95;13.65;;;;;;;4.90;100.00;101707.81;5047207;28;20074;-78
2023/12/27 05:53:34;;;;;;;26.48;13.73;;;;;;;4.92;100.00;101717.28;5045752;28;20029;-77
2023/12/27 05:56:00;;;;;;;27.45;13.85;;;;;;;4.93;100.00;101697.28;5042841;28;20028;-78
2023/12/27 05:58:26;;;;;;;33.10;14.10;;;;;;;4.95;100.00;101704.13;5049836;28;20025;-77
2023/12/27 06:00:51;;;;;;;28.60;13.73;;;;;;;4.96;100.00;101700.63;5048907;28;20083;-78
2023/12/27 06:03:16;;;;;;;28.83;14.30;;;;;;;4.98;100.00;101695.34;5043332;28;20817;-78
2023/12/27 06:05:42;;;;;;;31.35;14.75;;;;;;;4.99;100.00;101690.06;5041276;28;20029;-78
2023/12/27 06:08:07;;;;;;;29.45;14.35;;;;;;;5.00;100.00;101689.16;5047671;28;20032;-78
2023/12/27 06:10:32;;;;;;;27.08;13.88;;;;;;;5.01;100.00;101690.00;5046517;28;20118;-78
2023/12/27 06:12:58;;;;;;;26.20;14.00;;;;;;;5.01;100.00;101683.03;5034125;28;20017;-78
2023/12/27 06:15:23;;;;;;;27.63;15.05;;;;;;;5.02;100.00;101676.06;5039224;28;20513;-78
2023/12/27 06:17:49;;;;;;;29.50;14.63;;;;;;;5.04;100.00;101672.47;5043376;28;20086;-78
2023/12/27 06:20:14;;;;;;;28.50;14.27;;;;;;;5.06;100.00;101671.56;5029324;28;20041;-79
2023/12/27 06:22:40;;;;;;;30.48;14.48;;;;;;;5.06;100.00;101666.38;5029470;28;20053;-78
2023/12/27 06:25:06;;;;;;;28.77;14.02;;;;;;;5.07;100.00;101662.84;5029774;28;20025;-78
2023/12/27 06:27:32;;;;;;;27.92;13.35;;;;;;;5.08;100.00;101661.94;5029359;28;20032;-78
2023/12/27 06:30:00;;;;;;;23.63;14.93;;;;;;;5.09;100.00;101648.00;5038227;28;20037;-78
2023/12/27 06:32:25;;;;;;;22.50;13.45;;;;;;;5.12;100.00;101650.47;5046350;28;20033;-77
2023/12/27 06:34:51;;;;;;;21.92;14.55;;;;;;;5.14;100.00;101643.44;5040826;28;20049;-77
2023/12/27 06:37:17;;;;;;;25.75;14.00;;;;;;;5.15;100.00;101635.56;5035105;28;20033;-77
2023/12/27 06:39:42;;;;;;;23.05;14.15;;;;;;;5.19;100.00;101644.09;5043358;28;20012;-77
2023/12/27 06:42:08;;;;;;;21.45;13.18;;;;;;;5.18;100.00;101634.59;5039136;28;20166;-78
2023/12/27 06:44:33;;;;;;;25.00;14.05;;;;;;;5.21;100.00;101637.09;5045901;28;20020;-77
2023/12/27 06:46:59;;;;;;;29.30;14.60;;;;;;;5.23;100.00;101623.09;5046818;28;20032;-77
2023/12/27 06:49:25;;;;;;;23.63;13.48;;;;;;;5.26;100.00;101628.19;5047957;28;20061;-77
2023/12/27 06:51:50;;;;;;;23.25;14.73;;;;;;;5.28;100.00;101615.06;5045702;28;20025;-77
2023/12/27 06:54:18;;;;;;;16.85;13.23;;;;;;;5.31;100.00;101622.78;5035186;28;20034;-77
2023/12/27 06:56:43;;;;;;;17.23;12.93;;;;;;;5.34;100.00;101614.81;5027241;28;20029;-77
2023/12/27 06:59:08;;;;;;;19.63;13.50;;;;;;;5.37;100.00;101609.47;5037650;28;20477;-78
2023/12/27 07:01:34;;;;;;;19.17;13.15;;;;;;;5.39;100.00;101610.28;5047963;28;20392;-77
2023/12/27 07:03:59;;;;;;;17.27;13.85;;;;;;;5.42;100.00;101617.97;5047059;28;20028;-77
2023/12/27 07:06:24;;;;;;;18.88;13.40;;;;;;;5.43;100.00;101606.63;5047767;28;20049;-78
2023/12/27 07:08:50;;;;;;;17.02;13.40;;;;;;;5.45;100.00;101607.41;5048353;28;20457;-77
2023/12/27 07:11:18;;;;;;;17.83;14.07;;;;;;;5.47;100.00;101612.56;5046006;28;20756;-78
2023/12/27 07:13:46;;;;;;;16.73;13.90;;;;;;;5.49;100.00;101602.91;5049394;28;20081;-77
2023/12/27 07:16:15;;;;;;;17.05;14.07;;;;;;;5.51;100.00;101596.72;5043561;28;20029;-77
2023/12/27 07:18:41;;;;;;;19.80;14.57;;;;;;;5.55;100.00;101598.28;5029122;28;20374;-77
2023/12/27 07:21:06;;;;;;;18.10;14.60;;;;;;;5.58;100.00;101594.69;5048296;28;20021;-77
2023/12/27 07:23:32;;;;;;;19.58;14.90;;;;;;;5.61;100.00;101598.06;5046277;28;20259;-77
2023/12/27 07:26:00;;;;;;;17.10;14.55;;;;;;;5.63;100.00;101593.63;5045088;28;20021;-77
2023/12/27 07:28:26;;;;;;;18.40;15.50;;;;;;;5.68;100.00;101597.81;5047847;28;20033;-78
2023/12/27 07:30:52;;;;;;;17.52;15.52;;;;;;;5.72;100.00;101586.31;5046574;28;20368;-78
2023/12/27 07:33:17;;;;;;;18.15;14.88;;;;;;;5.73;100.00;101590.63;5047575;28;20106;-77
2023/12/27 07:35:43;;;;;;;18.35;15.07;;;;;;;5.77;100.00;101590.44;5048951;28;20067;-78
2023/12/27 07:38:08;;;;;;;20.33;16.35;;;;;;;5.81;100.00;101588.53;5050886;28;20076;-77
2023/12/27 07:40:34;;;;;;;20.40;15.77;;;;;;;5.83;100.00;101592.78;5046076;28;20028;-77
2023/12/27 07:43:02;;;;;;;19.42;15.98;;;;;;;5.86;100.00;101582.19;5050934;28;20108;-77
2023/12/27 07:45:27;;;;;;;22.23;16.50;;;;;;;5.89;100.00;101591.66;5050797;28;20028;-77
2023/12/27 07:47:52;;;;;;;20.55;16.23;;;;;;;5.92;100.00;101583.72;5051384;28;20488;-77
2023/12/27 07:50:18;;;;;;;19.50;16.42;;;;;;;5.94;100.00;101580.13;5049628;28;20168;-76
2023/12/27 07:52:43;;;;;;;22.48;16.15;;;;;;;5.95;100.00;101587.06;5051559;28;20477;-77
2023/12/27 07:55:09;;;;;;;19.13;15.88;;;;;;;5.98;100.00;101580.84;5045802;28;20037;-77
2023/12/27 07:57:34;;;;;;;21.05;15.98;;;;;;;6.00;100.00;101572.94;5051599;28;20482;-77
2023/12/27 07:59:59;;;;;;;21.08;15.95;;;;;;;6.03;100.00;101573.69;5029767;28;20021;-78
2023/12/27 08:02:25;;;;;;;23.33;16.60;;;;;;;6.05;100.00;101565.78;5030840;28;20082;-77
2023/12/27 08:04:50;;;;;;;20.92;17.00;;;;;;;6.08;100.00;101574.34;5048913;28;20078;-77
2023/12/27 08:07:16;;;;;;;21.77;16.88;;;;;;;6.12;100.00;101573.28;5049128;28;20044;-78
2023/12/27 08:09:42;;;;;;;22.85;16.48;;;;;;;6.14;100.00;101568.84;5037881;28;20128;-78
2023/12/27 08:12:08;;;;;;;21.20;16.17;;;;;;;6.16;100.00;101569.63;5050918;28;20112;-78
2023/12/27 08:14:33;;;;;;;22.52;16.92;;;;;;;6.19;100.00;101566.88;5043080;28;20036;-77
2023/12/27 08:17:02;;;;;;;19.17;16.45;;;;;;;6.23;100.00;101571.03;5038749;28;20405;-77
2023/12/27 08:19:30;;;;;;;23.00;16.17;;;;;;;6.24;100.00;101569.28;5049927;28;20041;-77
2023/12/27 08:21:55;;;;;;;22.63;15.68;;;;;;;6.27;100.00;101564.75;5050896;28;20017;-79
2023/12/27 08:24:20;;;;;;;22.40;16.05;;;;;;;6.30;100.00;101558.53;5033018;28;20162;-78
2023/12/27 08:26:46;;;;;;;21.98;15.75;;;;;;;6.33;100.00;101544.50;5050789;28;20057;-78
2023/12/27 08:29:12;;;;;;;19.45;15.13;;;;;;;6.34;100.00;101531.34;5045620;28;20026;-78
2023/12/27 08:31:37;;;;;;;26.38;15.75;;;;;;;6.38;100.00;101534.66;5050313;28;20033;-78
2023/12/27 08:34:03;;;;;;;20.08;15.18;;;;;;;6.40;100.00;101530.22;5050434;28;20076;-79
2023/12/27 08:36:32;;;;;;;18.15;15.18;;;;;;;6.43;100.00;101536.19;5047501;28;20122;-78
2023/12/27 08:39:00;;;;;;;19.00;14.05;;;;;;;6.45;100.00;101536.13;5049689;28;20021;-78
2023/12/27 08:41:26;;;;;;;19.33;13.98;;;;;;;6.48;100.00;101526.38;5039453;28;20167;-78
2023/12/27 08:43:52;;;;;;;21.42;14.27;;;;;;;6.50;100.00;101524.53;5038261;28;20021;-78
2023/12/27 08:46:20;;;;;;;17.52;14.55;;;;;;;6.53;100.00;101531.38;5048487;28;20033;-78
2023/12/27 08:48:46;;;;;;;19.08;13.90;;;;;;;6.55;100.00;101527.78;5051136;28;20017;-78
2023/12/27 08:51:12;;;;;;;16.75;13.15;;;;;;;6.59;100.00;101531.94;5050678;28;20488;-78
2023/12/27 08:53:37;;;;;;;17.65;12.52;;;;;;;6.62;100.00;101519.63;5051451;28;20025;-78
2023/12/27 08:56:04;;;;;;;15.95;13.30;;;;;;;6.64;100.00;101508.19;5051312;28;20078;-79
2023/12/27 08:58:29;;;;;;;18.40;12.65;;;;;;;6.67;100.00;101507.19;5049185;28;20028;-78
2023/12/27 09:00:55;;;;;;;16.30;12.75;;;;;;;6.68;100.00;101509.72;5051526;28;20428;-77
2023/12/27 09:03:21;;;;;;;19.05;12.50;;;;;;;6.70;100.00;101512.28;5049073;28;20082;-78
2023/12/27 09:05:46;;;;;;;15.60;12.00;;;;;;;6.73;100.00;101514.75;5050030;28;20100;-78
2023/12/27 09:08:12;;;;;;;16.42;11.50;;;;;;;6.74;100.00;101503.38;5050045;28;20041;-78
2023/12/27 09:10:37;;;;;;;16.60;11.80;;;;;;;6.74;100.00;101504.22;5045005;28;20071;-79
2023/12/27 09:13:03;;;;;;;16.63;11.95;;;;;;;6.77;100.00;101511.06;5047139;28;20560;-78
2023/12/27 09:15:29;;;;;;;17.05;11.63;;;;;;;6.78;100.00;101518.84;5047333;28;20397;-79
2023/12/27 09:17:54;;;;;;;14.80;11.13;;;;;;;6.80;100.00;101497.84;5048705;28;20035;-78
2023/12/27 09:20:19;;;;;;;15.05;10.52;;;;;;;6.82;100.00;101498.63;5049224;28;20051;-79
2023/12/27 09:22:45;;;;;;;14.82;10.63;;;;;;;6.84;100.00;101495.03;5049470;28;20039;-79
2023/12/27 09:25:12;;;;;;;14.65;10.68;;;;;;;6.85;100.00;101496.72;5044878;28;20021;-79
2023/12/27 09:27:37;;;;;;;13.48;9.63;;;;;;;6.87;100.00;101494.03;5044497;28;20546;-79
2023/12/27 09:30:04;;;;;;;13.95;10.10;;;;;;;6.88;100.00;101486.09;5046649;28;20036;-78
2023/12/27 09:32:29;;;;;;;12.15;9.85;;;;;;;6.91;100.00;101491.19;5043357;28;20056;-78
2023/12/27 09:34:54;;;;;;;13.30;9.48;;;;;;;6.94;100.00;101484.13;5047759;28;20041;-79
2023/12/27 09:37:20;;;;;;;12.65;9.15;;;;;;;6.97;100.00;101478.72;5043671;28;20113;-78
2023/12/27 09:39:45;;;;;;;12.40;8.93;;;;;;;6.99;100.00;101474.28;5045705;28;20043;-78
2023/12/27 09:42:12;;;;;;;10.27;8.63;;;;;;;7.03;100.00;101481.03;5046818;28;20072;-78
2023/12/27 09:44:40;;;;;;;9.98;8.15;;;;;;;7.04;100.00;101470.50;5041879;28;20417;-78
2023/12/27 09:47:09;;;;;;;11.35;7.55;;;;;;;7.08;100.00;101461.56;5048532;28;20036;-78
2023/12/27 09:49:35;;;;;;;9.95;7.35;;;;;;;7.15;100.00;101469.97;5049976;28;20017;-76
2023/12/27 09:52:01;;;;;;;9.60;7.15;;;;;;;7.18;100.00;101469.81;5047806;28;20086;-76
2023/12/27 09:54:27;;;;;;;8.32;7.10;;;;;;;7.23;100.00;101454.75;5042982;28;20021;-76
2023/12/27 09:56:53;;;;;;;8.52;7.53;;;;;;;7.27;100.00;101452.81;5040408;28;20477;-76
2023/12/27 09:59:26;;;;;;;8.52;6.50;;;;;;;7.31;100.00;101460.44;5038060;28;20392;-76
2023/12/27 10:02:00;;;;;;;7.65;5.93;;;;;;;7.38;100.00;101453.97;5036406;28;20030;-76
2023/12/27 10:04:44;;;;;;;8.75;5.93;;;;;;;7.45;100.00;101460.56;5043415;28;20111;-77
2023/12/27 10:07:11;;;;;;;7.63;4.75;;;;;;;7.47;100.00;101469.19;5048346;28;20079;-76
2023/12/27 10:09:38;;;;;;;7.72;4.53;;;;;;;7.54;100.00;101461.88;5047549;28;20512;-76
2023/12/27 10:12:05;;;;;;;4.82;3.50;;;;;;;7.57;100.00;101458.25;5033576;28;20040;-76
2023/12/27 10:14:31;;;;;;;4.95;3.33;;;;;;;7.63;100.00;101448.31;5045940;28;20027;-77
2023/12/27 10:16:56;;;;;;;6.13;2.90;;;;;;;7.69;100.00;101450.63;5037173;28;20083;-77
2023/12/27 10:19:42;;;;;;;6.88;3.08;;;;;;;7.75;100.00;101444.22;5044589;28;20032;-77
2023/12/27 10:22:09;;;;;;;6.20;2.88;;;;;;;7.78;100.00;101441.44;5037501;28;20060;-77
2023/12/27 10:24:34;;;;;;;4.43;2.38;;;;;;;7.81;100.00;101442.09;5048833;28;20091;-77
2023/12/27 10:27:01;;;;;;;4.78;2.67;;;;;;;7.85;100.00;101442.78;5046600;28;20029;-77
2023/12/27 10:29:28;;;;;;;4.45;2.17;;;;;;;7.89;100.00;101435.59;5046678;28;20040;-77
2023/12/27 10:31:54;;;;;;;6.13;2.72;;;;;;;7.93;100.00;101424.03;5049349;28;20413;-79
2023/12/27 10:34:20;;;;;;;4.65;2.38;;;;;;;7.96;100.00;101421.25;5048619;28;20060;-78
2023/12/27 10:36:48;;;;;;;4.80;2.40;;;;;;;7.99;100.00;101428.94;5048352;28;20047;-78
2023/12/27 10:39:17;;;;;;;5.20;2.35;;;;;;;8.03;100.00;101426.09;5046127;28;20094;-79
2023/12/27 10:41:42;;;;;;;7.45;2.55;;;;;;;8.05;100.00;101416.38;5048797;28;20033;-79
2023/12/27 10:44:08;;;;;;;6.07;2.47;;;;;;;8.07;100.00;101411.91;5046856;28;20033;-78
2023/12/27 10:46:38;;;;;;;7.20;2.60;;;;;;;8.09;100.00;101414.44;5043150;28;20033;-78
2023/12/27 10:49:04;;;;;;;7.38;2.88;;;;;;;8.10;100.00;101416.13;5042417;28;20033;-78
2023/12/27 10:51:30;;;;;;;9.38;2.83;;;;;;;8.13;100.00;101408.94;5046560;28;20028;-79
2023/12/27 10:54:00;;;;;;;6.50;2.83;;;;;;;8.13;100.00;101411.56;5047059;28;20029;-79
2023/12/27 10:56:27;;;;;;;6.40;2.83;;;;;;;8.16;100.00;101382.56;5047244;28;20086;-79
2023/12/27 10:58:52;;;;;;;8.02;3.17;;;;;;;8.18;100.00;101385.94;5044769;28;20560;-79
2023/12/27 11:01:19;;;;;;;7.10;3.00;;;;;;;8.21;100.00;101386.69;5047023;28;20033;-79
2023/12/27 11:03:47;;;;;;;9.00;3.22;;;;;;;8.24;100.00;101383.91;5047064;28;20075;-79
2023/12/27 11:06:13;;;;;;;9.95;2.92;;;;;;;8.25;100.00;101375.09;5047449;28;20367;-79